sensor_id;sensor_type;location;lat;lon;timestamp;P1;durP1;ratioP1;P2;durP2;ratioP2
61393;SDS011;48555;50.952;-0.120;2023-02-18T00:00:37;14.85;;;4.88;;
61393;SDS011;48555;50.952;-0.120;2023-02-18T00:03:02;13.90;;;5.35;;
61393;SDS011;48555;50.952;-0.120;2023-02-18T00:05:28;10.90;;;4.50;;
61393;SDS011;48555;50.952;-0.120;2023-02-18T00:07:53;14.05;;;4.95;;
61393;SDS011;48555;50.952;-0.120;2023-02-18T00:10:19;11.55;;;4.95;;
61393;SDS011;48555;50.952;-0.120;2023-02-18T00:12:44;15.65;;;5.13;;
61393;SDS011;48555;50.952;-0.120;2023-02-18T00:15:10;10.40;;;4.50;;
61393;SDS011;48555;50.952;-0.120;2023-02-18T00:17:35;9.75;;;4.50;;
61393;SDS011;48555;50.952;-0.120;2023-02-18T00:20:01;11.07;;;4.50;;
61393;SDS011;48555;50.952;-0.120;2023-02-18T00:22:26;14.02;;;5.07;;
61393;SDS011;48555;50.952;-0.120;2023-02-18T00:24:52;13.80;;;5.30;;
61393;SDS011;48555;50.952;-0.120;2023-02-18T00:27:18;10.65;;;4.90;;
61393;SDS011;48555;50.952;-0.120;2023-02-18T00:29:43;10.50;;;5.03;;
61393;SDS011;48555;50.952;-0.120;2023-02-18T00:32:08;8.98;;;4.80;;
61393;SDS011;48555;50.952;-0.120;2023-02-18T00:34:34;9.93;;;4.68;;
61393;SDS011;48555;50.952;-0.120;2023-02-18T00:37:00;10.90;;;4.57;;
61393;SDS011;48555;50.952;-0.120;2023-02-18T00:39:25;8.10;;;4.13;;
61393;SDS011;48555;50.952;-0.120;2023-02-18T00:41:50;11.75;;;4.35;;
61393;SDS011;48555;50.952;-0.120;2023-02-18T00:44:15;11.93;;;4.70;;
61393;SDS011;48555;50.952;-0.120;2023-02-18T00:46:41;10.88;;;4.78;;
61393;SDS011;48555;50.952;-0.120;2023-02-18T00:49:07;14.93;;;5.60;;
61393;SDS011;48555;50.952;-0.120;2023-02-18T00:51:33;11.75;;;4.85;;
61393;SDS011;48555;50.952;-0.120;2023-02-18T00:53:58;10.93;;;4.80;;
61393;SDS011;48555;50.952;-0.120;2023-02-18T00:56:24;7.93;;;4.30;;
61393;SDS011;48555;50.952;-0.120;2023-02-18T00:58:49;9.70;;;5.07;;
61393;SDS011;48555;50.952;-0.120;2023-02-18T01:01:16;13.15;;;4.47;;
61393;SDS011;48555;50.952;-0.120;2023-02-18T01:03:43;12.00;;;4.53;;
61393;SDS011;48555;50.952;-0.120;2023-02-18T01:06:09;11.00;;;4.43;;
61393;SDS011;48555;50.952;-0.120;2023-02-18T01:08:36;10.70;;;3.90;;
61393;SDS011;48555;50.952;-0.120;2023-02-18T01:11:03;12.35;;;3.88;;
61393;SDS011;48555;50.952;-0.120;2023-02-18T01:13:29;10.48;;;2.80;;
61393;SDS011;48555;50.952;-0.120;2023-02-18T01:15:55;12.38;;;3.25;;
61393;SDS011;48555;50.952;-0.120;2023-02-18T01:18:20;11.23;;;2.90;;
61393;SDS011;48555;50.952;-0.120;2023-02-18T01:20:47;12.02;;;2.90;;
61393;SDS011;48555;50.952;-0.120;2023-02-18T01:23:13;12.35;;;2.67;;
61393;SDS011;48555;50.952;-0.120;2023-02-18T01:25:38;13.05;;;2.70;;
61393;SDS011;48555;50.952;-0.120;2023-02-18T01:28:05;15.02;;;2.67;;
61393;SDS011;48555;50.952;-0.120;2023-02-18T01:30:31;13.32;;;2.95;;
61393;SDS011;48555;50.952;-0.120;2023-02-18T01:32:57;15.45;;;2.88;;
61393;SDS011;48555;50.952;-0.120;2023-02-18T01:35:23;11.60;;;2.88;;
61393;SDS011;48555;50.952;-0.120;2023-02-18T01:37:49;13.30;;;2.70;;
61393;SDS011;48555;50.952;-0.120;2023-02-18T01:40:17;16.13;;;2.65;;
61393;SDS011;48555;50.952;-0.120;2023-02-18T01:42:47;8.93;;;2.33;;
61393;SDS011;48555;50.952;-0.120;2023-02-18T01:47:57;11.35;;;2.20;;
61393;SDS011;48555;50.952;-0.120;2023-02-18T01:50:32;12.65;;;2.60;;
61393;SDS011;48555;50.952;-0.120;2023-02-18T01:53:01;11.52;;;2.10;;
61393;SDS011;48555;50.952;-0.120;2023-02-18T01:55:27;13.43;;;2.88;;
61393;SDS011;48555;50.952;-0.120;2023-02-18T01:57:52;14.00;;;2.80;;
61393;SDS011;48555;50.952;-0.120;2023-02-18T02:00:18;7.32;;;2.05;;
61393;SDS011;48555;50.952;-0.120;2023-02-18T02:02:46;10.63;;;2.35;;
61393;SDS011;48555;50.952;-0.120;2023-02-18T02:05:14;12.35;;;2.63;;
61393;SDS011;48555;50.952;-0.120;2023-02-18T02:07:40;12.05;;;2.58;;
61393;SDS011;48555;50.952;-0.120;2023-02-18T02:10:07;11.80;;;3.25;;
61393;SDS011;48555;50.952;-0.120;2023-02-18T02:39:37;16.60;;;3.88;;
61393;SDS011;48555;50.952;-0.120;2023-02-18T02:50:53;13.55;;;2.80;;
61393;SDS011;48555;50.952;-0.120;2023-02-18T02:53:29;11.43;;;2.47;;
61393;SDS011;48555;50.952;-0.120;2023-02-18T02:55:57;10.80;;;3.08;;
61393;SDS011;48555;50.952;-0.120;2023-02-18T02:58:22;12.48;;;2.78;;
61393;SDS011;48555;50.952;-0.120;2023-02-18T03:03:19;14.80;;;2.78;;
61393;SDS011;48555;50.952;-0.120;2023-02-18T03:06:03;13.68;;;2.60;;
61393;SDS011;48555;50.952;-0.120;2023-02-18T03:08:50;13.35;;;2.20;;
61393;SDS011;48555;50.952;-0.120;2023-02-18T03:11:24;13.70;;;2.55;;
61393;SDS011;48555;50.952;-0.120;2023-02-18T03:16:44;12.35;;;2.55;;
61393;SDS011;48555;50.952;-0.120;2023-02-18T03:19:28;9.63;;;2.15;;
61393;SDS011;48555;50.952;-0.120;2023-02-18T03:24:46;12.52;;;3.03;;
61393;SDS011;48555;50.952;-0.120;2023-02-18T03:27:22;14.45;;;2.50;;
61393;SDS011;48555;50.952;-0.120;2023-02-18T03:30:04;9.65;;;2.10;;
61393;SDS011;48555;50.952;-0.120;2023-02-18T03:32:34;14.38;;;2.25;;
61393;SDS011;48555;50.952;-0.120;2023-02-18T03:35:06;13.75;;;2.70;;
61393;SDS011;48555;50.952;-0.120;2023-02-18T03:37:37;11.15;;;2.50;;
61393;SDS011;48555;50.952;-0.120;2023-02-18T03:40:09;11.77;;;2.08;;
61393;SDS011;48555;50.952;-0.120;2023-02-18T03:42:35;8.57;;;2.03;;
61393;SDS011;48555;50.952;-0.120;2023-02-18T03:45:01;8.50;;;2.10;;
61393;SDS011;48555;50.952;-0.120;2023-02-18T03:47:27;11.32;;;2.17;;
61393;SDS011;48555;50.952;-0.120;2023-02-18T03:49:52;12.50;;;1.92;;
61393;SDS011;48555;50.952;-0.120;2023-02-18T03:52:18;9.88;;;2.30;;
61393;SDS011;48555;50.952;-0.120;2023-02-18T03:54:43;11.00;;;2.20;;
61393;SDS011;48555;50.952;-0.120;2023-02-18T03:57:09;9.85;;;2.65;;
61393;SDS011;48555;50.952;-0.120;2023-02-18T03:59:34;10.13;;;2.00;;
61393;SDS011;48555;50.952;-0.120;2023-02-18T04:01:59;9.25;;;1.65;;
61393;SDS011;48555;50.952;-0.120;2023-02-18T04:04:25;10.95;;;2.22;;
61393;SDS011;48555;50.952;-0.120;2023-02-18T04:06:50;8.95;;;2.00;;
61393;SDS011;48555;50.952;-0.120;2023-02-18T04:09:16;10.27;;;2.13;;
61393;SDS011;48555;50.952;-0.120;2023-02-18T04:11:41;15.20;;;2.58;;
61393;SDS011;48555;50.952;-0.120;2023-02-18T04:14:07;11.68;;;1.77;;
61393;SDS011;48555;50.952;-0.120;2023-02-18T04:16:34;10.23;;;1.63;;
61393;SDS011;48555;50.952;-0.120;2023-02-18T04:18:59;8.05;;;1.88;;
61393;SDS011;48555;50.952;-0.120;2023-02-18T04:21:24;8.07;;;2.03;;
61393;SDS011;48555;50.952;-0.120;2023-02-18T04:23:50;8.73;;;1.70;;
61393;SDS011;48555;50.952;-0.120;2023-02-18T04:26:15;10.07;;;1.88;;
61393;SDS011;48555;50.952;-0.120;2023-02-18T04:28:41;10.68;;;2.03;;
61393;SDS011;48555;50.952;-0.120;2023-02-18T04:31:06;6.53;;;1.50;;
61393;SDS011;48555;50.952;-0.120;2023-02-18T04:33:31;9.40;;;1.48;;
61393;SDS011;48555;50.952;-0.120;2023-02-18T04:35:57;9.68;;;2.00;;
61393;SDS011;48555;50.952;-0.120;2023-02-18T04:38:22;7.10;;;1.50;;
61393;SDS011;48555;50.952;-0.120;2023-02-18T04:40:47;11.10;;;2.35;;
61393;SDS011;48555;50.952;-0.120;2023-02-18T04:43:13;9.38;;;1.88;;
61393;SDS011;48555;50.952;-0.120;2023-02-18T04:45:38;7.03;;;1.50;;
61393;SDS011;48555;50.952;-0.120;2023-02-18T04:48:04;8.68;;;1.92;;
61393;SDS011;48555;50.952;-0.120;2023-02-18T04:50:29;9.45;;;1.90;;
61393;SDS011;48555;50.952;-0.120;2023-02-18T04:52:55;8.48;;;1.55;;
61393;SDS011;48555;50.952;-0.120;2023-02-18T04:55:21;6.85;;;1.48;;
61393;SDS011;48555;50.952;-0.120;2023-02-18T04:57:46;8.82;;;1.70;;
61393;SDS011;48555;50.952;-0.120;2023-02-18T05:00:13;9.32;;;1.50;;
61393;SDS011;48555;50.952;-0.120;2023-02-18T05:02:40;9.40;;;1.80;;
61393;SDS011;48555;50.952;-0.120;2023-02-18T05:05:06;8.45;;;1.92;;
61393;SDS011;48555;50.952;-0.120;2023-02-18T05:07:31;5.60;;;1.35;;
61393;SDS011;48555;50.952;-0.120;2023-02-18T05:09:57;8.82;;;2.08;;
61393;SDS011;48555;50.952;-0.120;2023-02-18T05:12:22;8.13;;;1.35;;
61393;SDS011;48555;50.952;-0.120;2023-02-18T05:14:47;8.70;;;1.55;;
61393;SDS011;48555;50.952;-0.120;2023-02-18T05:17:13;7.63;;;1.55;;
61393;SDS011;48555;50.952;-0.120;2023-02-18T05:19:38;7.25;;;1.60;;
61393;SDS011;48555;50.952;-0.120;2023-02-18T05:22:04;10.57;;;1.88;;
61393;SDS011;48555;50.952;-0.120;2023-02-18T05:24:29;6.90;;;1.38;;
61393;SDS011;48555;50.952;-0.120;2023-02-18T05:26:54;7.63;;;1.80;;
61393;SDS011;48555;50.952;-0.120;2023-02-18T05:29:19;6.82;;;1.50;;
61393;SDS011;48555;50.952;-0.120;2023-02-18T05:31:45;6.15;;;1.38;;
61393;SDS011;48555;50.952;-0.120;2023-02-18T05:34:10;8.52;;;1.65;;
61393;SDS011;48555;50.952;-0.120;2023-02-18T05:36:36;8.50;;;1.55;;
61393;SDS011;48555;50.952;-0.120;2023-02-18T05:39:01;8.75;;;1.52;;
61393;SDS011;48555;50.952;-0.120;2023-02-18T05:41:26;9.13;;;1.92;;
61393;SDS011;48555;50.952;-0.120;2023-02-18T05:43:52;10.95;;;1.90;;
61393;SDS011;48555;50.952;-0.120;2023-02-18T05:46:36;9.23;;;2.05;;
61393;SDS011;48555;50.952;-0.120;2023-02-18T05:49:01;9.05;;;1.50;;
61393;SDS011;48555;50.952;-0.120;2023-02-18T05:51:27;8.18;;;1.67;;
61393;SDS011;48555;50.952;-0.120;2023-02-18T05:53:52;9.38;;;1.90;;
61393;SDS011;48555;50.952;-0.120;2023-02-18T05:56:17;7.28;;;1.50;;
61393;SDS011;48555;50.952;-0.120;2023-02-18T05:58:43;8.25;;;1.58;;
61393;SDS011;48555;50.952;-0.120;2023-02-18T06:01:08;8.38;;;1.80;;
61393;SDS011;48555;50.952;-0.120;2023-02-18T06:03:34;6.93;;;1.40;;
61393;SDS011;48555;50.952;-0.120;2023-02-18T06:05:59;8.60;;;1.70;;
61393;SDS011;48555;50.952;-0.120;2023-02-18T06:08:26;11.18;;;2.30;;
61393;SDS011;48555;50.952;-0.120;2023-02-18T06:10:51;6.57;;;1.60;;
61393;SDS011;48555;50.952;-0.120;2023-02-18T06:13:16;6.75;;;1.38;;
61393;SDS011;48555;50.952;-0.120;2023-02-18T06:15:42;8.15;;;1.42;;
61393;SDS011;48555;50.952;-0.120;2023-02-18T06:18:07;10.45;;;1.77;;
61393;SDS011;48555;50.952;-0.120;2023-02-18T06:20:32;8.20;;;1.33;;
61393;SDS011;48555;50.952;-0.120;2023-02-18T06:22:58;7.85;;;1.58;;
61393;SDS011;48555;50.952;-0.120;2023-02-18T06:25:23;9.80;;;1.73;;
61393;SDS011;48555;50.952;-0.120;2023-02-18T06:27:48;7.28;;;1.27;;
61393;SDS011;48555;50.952;-0.120;2023-02-18T06:30:14;5.40;;;1.05;;
61393;SDS011;48555;50.952;-0.120;2023-02-18T06:32:39;6.32;;;1.40;;
61393;SDS011;48555;50.952;-0.120;2023-02-18T06:35:05;6.30;;;1.92;;
61393;SDS011;48555;50.952;-0.120;2023-02-18T06:37:31;4.07;;;1.17;;
61393;SDS011;48555;50.952;-0.120;2023-02-18T06:39:56;6.05;;;1.40;;
61393;SDS011;48555;50.952;-0.120;2023-02-18T06:42:22;4.78;;;0.80;;
61393;SDS011;48555;50.952;-0.120;2023-02-18T06:44:48;4.35;;;1.23;;
61393;SDS011;48555;50.952;-0.120;2023-02-18T06:47:13;5.07;;;1.05;;
61393;SDS011;48555;50.952;-0.120;2023-02-18T06:49:38;3.63;;;0.80;;
61393;SDS011;48555;50.952;-0.120;2023-02-18T06:52:04;4.30;;;0.90;;
61393;SDS011;48555;50.952;-0.120;2023-02-18T06:54:29;5.30;;;1.08;;
61393;SDS011;48555;50.952;-0.120;2023-02-18T06:56:55;5.28;;;1.17;;
61393;SDS011;48555;50.952;-0.120;2023-02-18T06:59:20;5.97;;;1.00;;
61393;SDS011;48555;50.952;-0.120;2023-02-18T07:01:46;5.55;;;1.02;;
61393;SDS011;48555;50.952;-0.120;2023-02-18T07:04:11;6.45;;;1.58;;
61393;SDS011;48555;50.952;-0.120;2023-02-18T07:06:37;6.35;;;1.02;;
61393;SDS011;48555;50.952;-0.120;2023-02-18T07:09:03;7.03;;;1.00;;
61393;SDS011;48555;50.952;-0.120;2023-02-18T07:11:29;5.50;;;1.10;;
61393;SDS011;48555;50.952;-0.120;2023-02-18T07:13:54;5.32;;;1.30;;
61393;SDS011;48555;50.952;-0.120;2023-02-18T07:16:19;8.02;;;1.15;;
61393;SDS011;48555;50.952;-0.120;2023-02-18T07:18:45;5.25;;;1.20;;
61393;SDS011;48555;50.952;-0.120;2023-02-18T07:21:10;7.47;;;1.30;;
61393;SDS011;48555;50.952;-0.120;2023-02-18T07:23:36;5.95;;;1.30;;
61393;SDS011;48555;50.952;-0.120;2023-02-18T07:26:02;7.80;;;1.60;;
61393;SDS011;48555;50.952;-0.120;2023-02-18T07:28:45;6.85;;;1.33;;
61393;SDS011;48555;50.952;-0.120;2023-02-18T07:31:10;4.57;;;1.10;;
61393;SDS011;48555;50.952;-0.120;2023-02-18T07:33:36;6.63;;;1.70;;
61393;SDS011;48555;50.952;-0.120;2023-02-18T07:36:02;4.95;;;1.38;;
61393;SDS011;48555;50.952;-0.120;2023-02-18T07:38:28;4.15;;;1.50;;
61393;SDS011;48555;50.952;-0.120;2023-02-18T07:40:55;6.65;;;1.48;;
61393;SDS011;48555;50.952;-0.120;2023-02-18T07:43:22;6.32;;;1.15;;
61393;SDS011;48555;50.952;-0.120;2023-02-18T07:45:47;6.93;;;1.63;;
61393;SDS011;48555;50.952;-0.120;2023-02-18T07:48:14;6.68;;;1.73;;
61393;SDS011;48555;50.952;-0.120;2023-02-18T07:50:40;5.00;;;1.38;;
61393;SDS011;48555;50.952;-0.120;2023-02-18T07:53:07;5.25;;;1.02;;
61393;SDS011;48555;50.952;-0.120;2023-02-18T07:55:32;5.85;;;1.38;;
61393;SDS011;48555;50.952;-0.120;2023-02-18T07:58:14;6.15;;;1.50;;
61393;SDS011;48555;50.952;-0.120;2023-02-18T08:00:39;5.82;;;1.40;;
61393;SDS011;48555;50.952;-0.120;2023-02-18T08:03:05;8.38;;;1.55;;
61393;SDS011;48555;50.952;-0.120;2023-02-18T08:05:30;6.97;;;1.40;;
61393;SDS011;48555;50.952;-0.120;2023-02-18T08:07:56;6.55;;;1.08;;
61393;SDS011;48555;50.952;-0.120;2023-02-18T08:10:21;6.03;;;1.60;;
61393;SDS011;48555;50.952;-0.120;2023-02-18T08:12:46;5.68;;;1.40;;
61393;SDS011;48555;50.952;-0.120;2023-02-18T08:15:12;4.55;;;1.27;;
61393;SDS011;48555;50.952;-0.120;2023-02-18T08:17:38;7.00;;;1.45;;
61393;SDS011;48555;50.952;-0.120;2023-02-18T08:20:03;4.32;;;1.30;;
61393;SDS011;48555;50.952;-0.120;2023-02-18T08:22:29;9.15;;;1.95;;
61393;SDS011;48555;50.952;-0.120;2023-02-18T08:24:55;7.25;;;1.73;;
61393;SDS011;48555;50.952;-0.120;2023-02-18T08:27:21;7.43;;;1.52;;
61393;SDS011;48555;50.952;-0.120;2023-02-18T08:29:47;6.85;;;1.73;;
61393;SDS011;48555;50.952;-0.120;2023-02-18T08:32:12;11.75;;;2.10;;
61393;SDS011;48555;50.952;-0.120;2023-02-18T08:34:37;11.15;;;2.00;;
61393;SDS011;48555;50.952;-0.120;2023-02-18T08:37:03;5.43;;;1.50;;
61393;SDS011;48555;50.952;-0.120;2023-02-18T08:39:32;5.57;;;1.75;;
61393;SDS011;48555;50.952;-0.120;2023-02-18T08:42:01;5.25;;;1.50;;
61393;SDS011;48555;50.952;-0.120;2023-02-18T08:44:26;5.82;;;1.38;;
61393;SDS011;48555;50.952;-0.120;2023-02-18T08:46:52;5.40;;;1.50;;
61393;SDS011;48555;50.952;-0.120;2023-02-18T08:49:17;8.32;;;1.75;;
61393;SDS011;48555;50.952;-0.120;2023-02-18T08:51:45;9.25;;;1.65;;
61393;SDS011;48555;50.952;-0.120;2023-02-18T08:54:11;9.48;;;1.90;;
61393;SDS011;48555;50.952;-0.120;2023-02-18T08:56:37;8.82;;;2.03;;
61393;SDS011;48555;50.952;-0.120;2023-02-18T08:59:03;13.02;;;1.80;;
61393;SDS011;48555;50.952;-0.120;2023-02-18T09:01:29;10.07;;;2.13;;
61393;SDS011;48555;50.952;-0.120;2023-02-18T09:03:54;9.20;;;1.50;;
61393;SDS011;48555;50.952;-0.120;2023-02-18T09:06:19;5.65;;;1.40;;
61393;SDS011;48555;50.952;-0.120;2023-02-18T09:08:44;6.25;;;1.70;;
61393;SDS011;48555;50.952;-0.120;2023-02-18T09:11:10;6.50;;;1.20;;
61393;SDS011;48555;50.952;-0.120;2023-02-18T09:13:36;7.68;;;1.80;;
61393;SDS011;48555;50.952;-0.120;2023-02-18T09:16:03;6.40;;;1.80;;
61393;SDS011;48555;50.952;-0.120;2023-02-18T09:18:33;8.05;;;1.70;;
61393;SDS011;48555;50.952;-0.120;2023-02-18T09:21:02;11.30;;;2.30;;
61393;SDS011;48555;50.952;-0.120;2023-02-18T09:23:30;7.72;;;1.90;;
61393;SDS011;48555;50.952;-0.120;2023-02-18T09:25:56;9.80;;;2.42;;
61393;SDS011;48555;50.952;-0.120;2023-02-18T09:28:22;6.68;;;1.55;;
61393;SDS011;48555;50.952;-0.120;2023-02-18T09:30:48;8.90;;;2.17;;
61393;SDS011;48555;50.952;-0.120;2023-02-18T09:33:14;8.60;;;1.70;;
61393;SDS011;48555;50.952;-0.120;2023-02-18T09:35:41;11.77;;;2.20;;
61393;SDS011;48555;50.952;-0.120;2023-02-18T09:38:10;4.95;;;1.42;;
61393;SDS011;48555;50.952;-0.120;2023-02-18T09:40:38;8.05;;;1.95;;
61393;SDS011;48555;50.952;-0.120;2023-02-18T09:43:10;9.07;;;1.83;;
61393;SDS011;48555;50.952;-0.120;2023-02-18T09:45:48;7.38;;;1.65;;
61393;SDS011;48555;50.952;-0.120;2023-02-18T09:48:15;6.32;;;1.70;;
61393;SDS011;48555;50.952;-0.120;2023-02-18T09:50:40;8.00;;;1.55;;
61393;SDS011;48555;50.952;-0.120;2023-02-18T09:53:06;6.05;;;1.50;;
61393;SDS011;48555;50.952;-0.120;2023-02-18T09:55:37;7.38;;;1.70;;
61393;SDS011;48555;50.952;-0.120;2023-02-18T09:58:12;8.48;;;2.45;;
61393;SDS011;48555;50.952;-0.120;2023-02-18T10:00:42;6.97;;;1.83;;
61393;SDS011;48555;50.952;-0.120;2023-02-18T10:03:12;7.03;;;1.90;;
61393;SDS011;48555;50.952;-0.120;2023-02-18T10:05:49;9.80;;;1.73;;
61393;SDS011;48555;50.952;-0.120;2023-02-18T10:08:27;6.05;;;1.80;;
61393;SDS011;48555;50.952;-0.120;2023-02-18T10:11:30;5.60;;;1.83;;
61393;SDS011;48555;50.952;-0.120;2023-02-18T10:14:00;11.55;;;2.33;;
61393;SDS011;48555;50.952;-0.120;2023-02-18T10:16:27;8.93;;;2.13;;
61393;SDS011;48555;50.952;-0.120;2023-02-18T10:18:53;9.30;;;1.90;;
61393;SDS011;48555;50.952;-0.120;2023-02-18T10:21:23;6.57;;;2.33;;
61393;SDS011;48555;50.952;-0.120;2023-02-18T10:26:30;8.48;;;2.30;;
61393;SDS011;48555;50.952;-0.120;2023-02-18T10:28:59;7.45;;;2.03;;
61393;SDS011;48555;50.952;-0.120;2023-02-18T10:31:29;6.50;;;1.92;;
61393;SDS011;48555;50.952;-0.120;2023-02-18T10:33:59;9.18;;;2.13;;
61393;SDS011;48555;50.952;-0.120;2023-02-18T10:52:22;8.35;;;2.58;;
61393;SDS011;48555;50.952;-0.120;2023-02-18T10:54:56;6.82;;;2.33;;
61393;SDS011;48555;50.952;-0.120;2023-02-18T10:57:30;8.75;;;2.72;;
61393;SDS011;48555;50.952;-0.120;2023-02-18T11:00:00;9.85;;;2.67;;
61393;SDS011;48555;50.952;-0.120;2023-02-18T11:02:39;8.50;;;2.60;;
61393;SDS011;48555;50.952;-0.120;2023-02-18T11:05:26;7.45;;;2.65;;
61393;SDS011;48555;50.952;-0.120;2023-02-18T11:07:55;7.90;;;2.78;;
61393;SDS011;48555;50.952;-0.120;2023-02-18T11:10:26;6.45;;;2.60;;
61393;SDS011;48555;50.952;-0.120;2023-02-18T11:12:56;12.50;;;3.00;;
61393;SDS011;48555;50.952;-0.120;2023-02-18T11:15:25;10.18;;;2.72;;
61393;SDS011;48555;50.952;-0.120;2023-02-18T11:17:53;10.75;;;3.15;;
61393;SDS011;48555;50.952;-0.120;2023-02-18T11:20:33;8.93;;;2.58;;
61393;SDS011;48555;50.952;-0.120;2023-02-18T11:28:03;7.82;;;2.17;;
61393;SDS011;48555;50.952;-0.120;2023-02-18T11:30:38;8.55;;;2.60;;
61393;SDS011;48555;50.952;-0.120;2023-02-18T11:35:50;7.22;;;2.40;;
61393;SDS011;48555;50.952;-0.120;2023-02-18T11:38:22;11.73;;;2.50;;
61393;SDS011;48555;50.952;-0.120;2023-02-18T11:40:56;9.10;;;2.80;;
61393;SDS011;48555;50.952;-0.120;2023-02-18T11:43:28;8.60;;;2.55;;
61393;SDS011;48555;50.952;-0.120;2023-02-18T11:46:11;7.15;;;2.40;;
61393;SDS011;48555;50.952;-0.120;2023-02-18T11:48:39;9.18;;;2.72;;
61393;SDS011;48555;50.952;-0.120;2023-02-18T11:51:05;9.52;;;2.67;;
61393;SDS011;48555;50.952;-0.120;2023-02-18T11:53:52;8.30;;;2.60;;
61393;SDS011;48555;50.952;-0.120;2023-02-18T11:56:19;9.65;;;2.75;;
61393;SDS011;48555;50.952;-0.120;2023-02-18T11:58:46;8.73;;;2.90;;
61393;SDS011;48555;50.952;-0.120;2023-02-18T12:01:33;10.15;;;2.67;;
61393;SDS011;48555;50.952;-0.120;2023-02-18T12:04:07;10.02;;;2.30;;
61393;SDS011;48555;50.952;-0.120;2023-02-18T12:12:04;8.15;;;2.60;;
61393;SDS011;48555;50.952;-0.120;2023-02-18T12:14:35;7.88;;;2.50;;
61393;SDS011;48555;50.952;-0.120;2023-02-18T12:22:21;13.98;;;2.75;;
61393;SDS011;48555;50.952;-0.120;2023-02-18T12:25:09;11.65;;;3.13;;
61393;SDS011;48555;50.952;-0.120;2023-02-18T12:39:36;12.02;;;2.72;;
61393;SDS011;48555;50.952;-0.120;2023-02-18T12:44:36;11.23;;;2.65;;
61393;SDS011;48555;50.952;-0.120;2023-02-18T12:56:22;14.02;;;2.70;;
61393;SDS011;48555;50.952;-0.120;2023-02-18T13:14:46;14.90;;;4.78;;
61393;SDS011;48555;50.952;-0.120;2023-02-18T13:17:16;14.77;;;3.50;;
61393;SDS011;48555;50.952;-0.120;2023-02-18T13:22:13;13.85;;;3.33;;
61393;SDS011;48555;50.952;-0.120;2023-02-18T13:24:42;12.50;;;3.10;;
61393;SDS011;48555;50.952;-0.120;2023-02-18T13:29:39;13.35;;;3.20;;
61393;SDS011;48555;50.952;-0.120;2023-02-18T13:32:35;9.75;;;2.60;;
61393;SDS011;48555;50.952;-0.120;2023-02-18T13:40:03;17.33;;;3.42;;
61393;SDS011;48555;50.952;-0.120;2023-02-18T13:42:33;12.38;;;2.47;;
61393;SDS011;48555;50.952;-0.120;2023-02-18T13:50:13;13.15;;;3.10;;
61393;SDS011;48555;50.952;-0.120;2023-02-18T13:52:46;10.90;;;2.75;;
61393;SDS011;48555;50.952;-0.120;2023-02-18T13:55:22;15.43;;;3.33;;
61393;SDS011;48555;50.952;-0.120;2023-02-18T13:57:52;11.65;;;3.10;;
61393;SDS011;48555;50.952;-0.120;2023-02-18T14:00:23;12.93;;;3.13;;
61393;SDS011;48555;50.952;-0.120;2023-02-18T14:03:00;14.88;;;3.50;;
61393;SDS011;48555;50.952;-0.120;2023-02-18T14:05:39;16.45;;;3.85;;
61393;SDS011;48555;50.952;-0.120;2023-02-18T14:08:10;13.70;;;2.78;;
61393;SDS011;48555;50.952;-0.120;2023-02-18T14:10:40;15.60;;;3.35;;
61393;SDS011;48555;50.952;-0.120;2023-02-18T14:13:25;14.48;;;3.15;;
61393;SDS011;48555;50.952;-0.120;2023-02-18T14:16:13;16.95;;;3.20;;
61393;SDS011;48555;50.952;-0.120;2023-02-18T14:23:43;13.30;;;3.13;;
61393;SDS011;48555;50.952;-0.120;2023-02-18T14:26:32;15.57;;;3.15;;
61393;SDS011;48555;50.952;-0.120;2023-02-18T14:29:06;12.77;;;3.10;;
61393;SDS011;48555;50.952;-0.120;2023-02-18T14:45:34;15.25;;;3.40;;
61393;SDS011;48555;50.952;-0.120;2023-02-18T14:50:53;12.77;;;3.40;;
61393;SDS011;48555;50.952;-0.120;2023-02-18T14:53:21;13.77;;;2.85;;
61393;SDS011;48555;50.952;-0.120;2023-02-18T14:55:49;10.07;;;3.10;;
61393;SDS011;48555;50.952;-0.120;2023-02-18T14:58:28;14.07;;;2.90;;
61393;SDS011;48555;50.952;-0.120;2023-02-18T15:01:04;13.13;;;3.10;;
61393;SDS011;48555;50.952;-0.120;2023-02-18T15:03:31;14.20;;;3.15;;
61393;SDS011;48555;50.952;-0.120;2023-02-18T15:05:56;12.07;;;2.80;;
61393;SDS011;48555;50.952;-0.120;2023-02-18T15:08:22;12.77;;;2.70;;
61393;SDS011;48555;50.952;-0.120;2023-02-18T15:13:25;13.10;;;2.78;;
61393;SDS011;48555;50.952;-0.120;2023-02-18T15:15:54;12.77;;;2.67;;
61393;SDS011;48555;50.952;-0.120;2023-02-18T15:18:33;15.43;;;3.17;;
61393;SDS011;48555;50.952;-0.120;2023-02-18T15:21:05;9.27;;;2.95;;
61393;SDS011;48555;50.952;-0.120;2023-02-18T15:23:36;17.73;;;3.72;;
61393;SDS011;48555;50.952;-0.120;2023-02-18T15:26:03;15.20;;;3.33;;
61393;SDS011;48555;50.952;-0.120;2023-02-18T15:28:31;13.75;;;2.90;;
61393;SDS011;48555;50.952;-0.120;2023-02-18T15:31:02;12.30;;;2.45;;
61393;SDS011;48555;50.952;-0.120;2023-02-18T15:33:28;11.85;;;3.00;;
61393;SDS011;48555;50.952;-0.120;2023-02-18T15:36:04;13.68;;;2.88;;
61393;SDS011;48555;50.952;-0.120;2023-02-18T15:38:30;17.35;;;2.95;;
61393;SDS011;48555;50.952;-0.120;2023-02-18T15:40:56;13.15;;;2.63;;
61393;SDS011;48555;50.952;-0.120;2023-02-18T15:43:23;14.88;;;3.20;;
61393;SDS011;48555;50.952;-0.120;2023-02-18T15:45:51;15.82;;;2.95;;
61393;SDS011;48555;50.952;-0.120;2023-02-18T15:48:21;14.55;;;2.90;;
61393;SDS011;48555;50.952;-0.120;2023-02-18T15:50:54;14.35;;;3.05;;
61393;SDS011;48555;50.952;-0.120;2023-02-18T15:53:22;15.25;;;2.75;;
61393;SDS011;48555;50.952;-0.120;2023-02-18T15:55:49;15.95;;;2.90;;
61393;SDS011;48555;50.952;-0.120;2023-02-18T16:00:47;18.88;;;3.40;;
61393;SDS011;48555;50.952;-0.120;2023-02-18T16:03:22;18.85;;;3.22;;
61393;SDS011;48555;50.952;-0.120;2023-02-18T16:06:08;13.25;;;3.40;;
61393;SDS011;48555;50.952;-0.120;2023-02-18T16:08:36;14.77;;;3.15;;
61393;SDS011;48555;50.952;-0.120;2023-02-18T16:11:06;14.75;;;2.90;;
61393;SDS011;48555;50.952;-0.120;2023-02-18T16:13:35;15.65;;;3.33;;
61393;SDS011;48555;50.952;-0.120;2023-02-18T16:16:17;14.32;;;2.72;;
61393;SDS011;48555;50.952;-0.120;2023-02-18T16:18:48;13.32;;;2.53;;
61393;SDS011;48555;50.952;-0.120;2023-02-18T16:23:42;12.70;;;2.92;;
61393;SDS011;48555;50.952;-0.120;2023-02-18T16:26:11;12.15;;;3.25;;
61393;SDS011;48555;50.952;-0.120;2023-02-18T16:28:53;14.35;;;2.85;;
61393;SDS011;48555;50.952;-0.120;2023-02-18T16:31:19;12.27;;;2.80;;
61393;SDS011;48555;50.952;-0.120;2023-02-18T16:33:45;17.02;;;3.08;;
61393;SDS011;48555;50.952;-0.120;2023-02-18T16:36:14;12.20;;;3.25;;
61393;SDS011;48555;50.952;-0.120;2023-02-18T16:38:41;11.50;;;2.75;;
61393;SDS011;48555;50.952;-0.120;2023-02-18T16:41:07;10.85;;;2.60;;
61393;SDS011;48555;50.952;-0.120;2023-02-18T16:43:35;15.18;;;3.78;;
61393;SDS011;48555;50.952;-0.120;2023-02-18T16:46:08;13.73;;;4.07;;
61393;SDS011;48555;50.952;-0.120;2023-02-18T16:48:39;13.73;;;3.67;;
61393;SDS011;48555;50.952;-0.120;2023-02-18T16:51:08;13.75;;;3.33;;
61393;SDS011;48555;50.952;-0.120;2023-02-18T16:53:37;10.85;;;3.78;;
61393;SDS011;48555;50.952;-0.120;2023-02-18T16:56:04;14.68;;;3.78;;
61393;SDS011;48555;50.952;-0.120;2023-02-18T16:58:30;19.63;;;4.88;;
61393;SDS011;48555;50.952;-0.120;2023-02-18T17:00:55;16.10;;;4.40;;
61393;SDS011;48555;50.952;-0.120;2023-02-18T17:03:21;13.73;;;3.60;;
61393;SDS011;48555;50.952;-0.120;2023-02-18T17:05:47;17.33;;;3.58;;
61393;SDS011;48555;50.952;-0.120;2023-02-18T17:08:19;16.63;;;3.78;;
61393;SDS011;48555;50.952;-0.120;2023-02-18T17:10:50;15.32;;;4.28;;
61393;SDS011;48555;50.952;-0.120;2023-02-18T17:13:20;16.83;;;4.25;;
61393;SDS011;48555;50.952;-0.120;2023-02-18T17:15:51;17.65;;;4.38;;
61393;SDS011;48555;50.952;-0.120;2023-02-18T17:18:18;14.20;;;3.95;;
61393;SDS011;48555;50.952;-0.120;2023-02-18T17:20:43;13.32;;;4.03;;
61393;SDS011;48555;50.952;-0.120;2023-02-18T17:23:20;13.27;;;4.15;;